Wetterdaten: Woche 16.08.04 - 22.08.04 (KW34)
Datum Zeit Temperatur Luftfeuchte Luftdruck Niederschlag Taupunkt Windchill Wind
16.08.2004 00:00 13,9 C 85 % 1020 hPa 0,0 l/m 11,3 C 13,9 C 0,0 km/h (0 Bft)
16.08.2004 01:00 13,5 C 87 % 1020 hPa 0,0 l/m 11,4 C 13,5 C 0,0 km/h (0 Bft)
16.08.2004 02:00 12,8 C 89 % 1019 hPa 0,0 l/m 11,0 C 12,8 C 0,0 km/h (0 Bft)
16.08.2004 03:00 12,0 C 92 % 1019 hPa 0,0 l/m 10,6 C 12,0 C 0,0 km/h (0 Bft)
16.08.2004 04:00 11,5 C 94 % 1018 hPa 0,0 l/m 10,5 C 11,5 C 0,0 km/h (0 Bft)
16.08.2004 05:00 11,1 C 95 % 1018 hPa 0,0 l/m 10,3 C 11,1 C 0,0 km/h (0 Bft)
16.08.2004 06:00 10,9 C 96 % 1018 hPa 0,0 l/m 10,2 C 10,9 C 0,0 km/h (0 Bft)
16.08.2004 07:00 11,2 C 97 % 1018 hPa 0,0 l/m 10,8 C 11,2 C 0,0 km/h (0 Bft)
16.08.2004 08:00 12,5 C 98 % 1018 hPa 0,0 l/m 12,1 C 12,4 C 1,5 km/h (1 Bft)
16.08.2004 09:00 15,8 C 90 % 1017 hPa 0,0 l/m 14,2 C 15,0 C 8,4 km/h (2 Bft)
16.08.2004 10:00 18,5 C 79 % 1017 hPa 0,0 l/m 14,7 C 17,0 C 11,3 km/h (2 Bft)
16.08.2004 11:00 20,2 C 71 % 1017 hPa 0,0 l/m 14,8 C 19,6 C 8,0 km/h (2 Bft)
16.08.2004 12:00 22,9 C 56 % 1017 hPa 0,0 l/m 13,6 C 21,6 C 12,8 km/h (3 Bft)
16.08.2004 13:00 25,0 C 47 % 1016 hPa 0,0 l/m 13,0 C 23,9 C 13,0 km/h (3 Bft)
16.08.2004 14:00 25,2 C 48 % 1016 hPa 0,0 l/m 13,4 C 24,0 C 14,1 km/h (3 Bft)
16.08.2004 15:00 23,4 C 51 % 1016 hPa 0,0 l/m 12,8 C 21,8 C 14,8 km/h (3 Bft)
16.08.2004 16:00 20,5 C 66 % 1017 hPa 2,0 l/m 13,6 C 19,0 C 12,2 km/h (2 Bft)
16.08.2004 17:00 17,7 C 88 % 1017 hPa 0,0 l/m 15,7 C 16,9 C 8,7 km/h (2 Bft)
16.08.2004 18:00 17,3 C 93 % 1017 hPa 1,0 l/m 16,1 C 17,1 C 1,9 km/h (1 Bft)
16.08.2004 19:00 17,5 C 95 % 1016 hPa 0,0 l/m 16,7 C 17,5 C 0,0 km/h (0 Bft)
16.08.2004 20:00 17,3 C 95 % 1016 hPa 0,0 l/m 16,5 C 17,3 C 0,0 km/h (0 Bft)
16.08.2004 21:00 16,4 C 95 % 1015 hPa 0,0 l/m 15,6 C 16,4 C 0,0 km/h (0 Bft)
16.08.2004 22:00 15,7 C 96 % 1014 hPa 0,0 l/m 15,1 C 15,7 C 0,0 km/h (0 Bft)
16.08.2004 23:00 15,3 C 97 % 1013 hPa 0,0 l/m 14,9 C 15,3 C 0,0 km/h (0 Bft)
17.08.2004 00:00 15,3 C 98 % 1014 hPa 0,0 l/m 15,0 C 15,3 C 0,0 km/h (0 Bft)
17.08.2004 01:00 15,1 C 98 % 1014 hPa 0,0 l/m 14,8 C 15,1 C 0,0 km/h (0 Bft)
17.08.2004 02:00 15,0 C 98 % 1013 hPa 0,0 l/m 14,7 C 15,0 C 0,0 km/h (0 Bft)
17.08.2004 03:00 15,0 C 98 % 1013 hPa 0,0 l/m 14,7 C 15,0 C 0,0 km/h (0 Bft)
17.08.2004 04:00 15,0 C 98 % 1012 hPa 0,0 l/m 14,7 C 15,0 C 0,0 km/h (0 Bft)
17.08.2004 05:00 14,7 C 98 % 1012 hPa 0,0 l/m 14,4 C 14,7 C 0,0 km/h (0 Bft)
17.08.2004 06:00 14,7 C 98 % 1012 hPa 0,0 l/m 14,4 C 14,7 C 0,0 km/h (0 Bft)
17.08.2004 07:00 15,2 C 98 % 1012 hPa 0,0 l/m 14,9 C 15,2 C 0,6 km/h (0 Bft)
17.08.2004 08:00 16,8 C 98 % 1012 hPa 0,0 l/m 16,5 C 16,6 C 4,2 km/h (1 Bft)
17.08.2004 09:00 18,2 C 95 % 1013 hPa 0,0 l/m 17,4 C 17,6 C 8,4 km/h (2 Bft)
17.08.2004 10:00 20,1 C 83 % 1013 hPa 0,0 l/m 17,1 C 19,3 C 9,9 km/h (2 Bft)
17.08.2004 11:00 20,7 C 69 % 1013 hPa 0,0 l/m 14,9 C 19,8 C 9,4 km/h (2 Bft)
17.08.2004 12:00 21,0 C 67 % 1013 hPa 0,0 l/m 14,6 C 20,6 C 7,6 km/h (2 Bft)
17.08.2004 13:00 21,0 C 65 % 1013 hPa 0,0 l/m 14,2 C 20,5 C 8,7 km/h (2 Bft)
17.08.2004 14:00 20,3 C 69 % 1013 hPa 0,0 l/m 14,3 C 20,3 C 1,6 km/h (1 Bft)
17.08.2004 15:00 19,7 C 79 % 1012 hPa 0,0 l/m 16,0 C 19,7 C 1,9 km/h (1 Bft)
17.08.2004 16:00 20,6 C 71 % 1012 hPa 0,0 l/m 15,2 C 20,4 C 5,2 km/h (1 Bft)
17.08.2004 17:00 21,8 C 63 % 1012 hPa 0,0 l/m 14,4 C 21,2 C 8,6 km/h (2 Bft)
17.08.2004 18:00 21,7 C 63 % 1011 hPa 0,0 l/m 14,3 C 20,7 C 10,5 km/h (2 Bft)
17.08.2004 19:00 20,5 C 69 % 1011 hPa 0,0 l/m 14,5 C 20,3 C 4,4 km/h (1 Bft)
17.08.2004 20:00 19,0 C 78 % 1012 hPa 0,0 l/m 15,1 C 18,9 C 5,3 km/h (1 Bft)
17.08.2004 21:00 18,3 C 82 % 1012 hPa 0,0 l/m 15,1 C 18,0 C 4,2 km/h (1 Bft)
17.08.2004 22:00 17,6 C 86 % 1011 hPa 0,0 l/m 15,2 C 17,6 C 0,0 km/h (0 Bft)
17.08.2004 23:00 16,7 C 90 % 1011 hPa 0,0 l/m 15,1 C 16,6 C 1,2 km/h (1 Bft)
18.08.2004 00:00 15,8 C 92 % 1011 hPa 0,0 l/m 14,5 C 15,8 C 0,2 km/h (0 Bft)
18.08.2004 01:00 15,7 C 95 % 1010 hPa 0,0 l/m 15,0 C 15,5 C 2,1 km/h (1 Bft)
18.08.2004 02:00 15,9 C 97 % 1011 hPa 0,0 l/m 15,4 C 15,5 C 4,6 km/h (1 Bft)
18.08.2004 03:00 16,4 C 95 % 1012 hPa 0,0 l/m 15,7 C 14,9 C 9,5 km/h (2 Bft)
18.08.2004 04:00 16,5 C 92 % 1011 hPa 0,0 l/m 15,2 C 16,3 C 2,2 km/h (1 Bft)
18.08.2004 05:00 15,8 C 94 % 1011 hPa 0,0 l/m 14,8 C 15,7 C 1,2 km/h (1 Bft)
18.08.2004 06:00 15,0 C 95 % 1012 hPa 0,0 l/m 14,3 C 15,0 C 0,0 km/h (0 Bft)
18.08.2004 07:00 15,4 C 97 % 1013 hPa 0,0 l/m 15,0 C 15,4 C 0,0 km/h (0 Bft)
18.08.2004 08:00 16,5 C 98 % 1013 hPa 0,0 l/m 16,2 C 16,3 C 3,5 km/h (1 Bft)
18.08.2004 09:00 19,2 C 84 % 1013 hPa 0,0 l/m 16,4 C 17,8 C 10,6 km/h (2 Bft)
18.08.2004 10:00 22,2 C 68 % 1013 hPa 0,0 l/m 16,0 C 21,1 C 11,2 km/h (2 Bft)
18.08.2004 11:00 23,8 C 60 % 1013 hPa 0,0 l/m 15,5 C 23,7 C 4,5 km/h (1 Bft)
18.08.2004 12:00 26,0 C 50 % 1014 hPa 0,0 l/m 14,6 C 25,6 C 7,0 km/h (2 Bft)
18.08.2004 13:00 27,2 C 45 % 1013 hPa 0,0 l/m 14,3 C 26,8 C 9,6 km/h (2 Bft)
18.08.2004 14:00 28,1 C 40 % 1013 hPa 0,0 l/m 13,2 C 27,7 C 9,3 km/h (2 Bft)
18.08.2004 15:00 29,1 C 35 % 1013 hPa 0,0 l/m 12,1 C 29,0 C 6,5 km/h (2 Bft)
18.08.2004 16:00 29,5 C 33 % 1012 hPa 0,0 l/m 11,4 C 29,4 C 6,9 km/h (2 Bft)
18.08.2004 17:00 29,4 C 33 % 1012 hPa 0,0 l/m 11,4 C 29,3 C 2,6 km/h (1 Bft)
18.08.2004 18:00 28,9 C 34 % 1011 hPa 0,0 l/m 11,4 C 28,4 C 12,3 km/h (3 Bft)
18.08.2004 19:00 26,7 C 41 % 1010 hPa 0,0 l/m 12,2 C 26,1 C 11,1 km/h (2 Bft)
18.08.2004 20:00 23,2 C 55 % 1010 hPa 0,0 l/m 13,5 C 23,2 C 0,2 km/h (0 Bft)
18.08.2004 21:00 20,6 C 67 % 1011 hPa 0,0 l/m 14,3 C 20,6 C 0,0 km/h (0 Bft)
18.08.2004 22:00 19,0 C 71 % 1011 hPa 0,0 l/m 13,6 C 19,0 C 0,0 km/h (0 Bft)
18.08.2004 23:00 17,8 C 72 % 1011 hPa 0,0 l/m 12,6 C 17,7 C 1,9 km/h (1 Bft)
19.08.2004 00:00 19,5 C 59 % 1011 hPa 0,0 l/m 11,2 C 18,1 C 9,9 km/h (2 Bft)
19.08.2004 01:00 19,4 C 60 % 1011 hPa 0,0 l/m 11,4 C 18,8 C 3,6 km/h (1 Bft)
19.08.2004 02:00 19,0 C 71 % 1014 hPa 0,0 l/m 13,6 C 16,3 C 17,2 km/h (3 Bft)
19.08.2004 03:00 18,2 C 71 % 1015 hPa 0,0 l/m 13,0 C 17,1 C 7,7 km/h (2 Bft)
19.08.2004 04:00 17,8 C 76 % 1016 hPa 0,0 l/m 13,5 C 17,7 C 4,4 km/h (1 Bft)
19.08.2004 05:00 17,6 C 78 % 1015 hPa 0,0 l/m 13,7 C 17,6 C 0,2 km/h (0 Bft)
19.08.2004 06:00 17,5 C 80 % 1015 hPa 0,0 l/m 14,0 C 17,4 C 3,0 km/h (1 Bft)
19.08.2004 07:00 17,5 C 82 % 1015 hPa 0,0 l/m 14,3 C 17,5 C 1,3 km/h (1 Bft)
19.08.2004 08:00 18,0 C 81 % 1015 hPa 0,0 l/m 14,8 C 17,7 C 5,8 km/h (2 Bft)
19.08.2004 09:00 18,6 C 78 % 1016 hPa 0,0 l/m 14,7 C 18,5 C 5,3 km/h (1 Bft)
19.08.2004 10:00 19,5 C 72 % 1016 hPa 0,0 l/m 14,4 C 19,4 C 3,0 km/h (1 Bft)
19.08.2004 11:00 20,1 C 71 % 1016 hPa 0,0 l/m 14,6 C 19,9 C 4,7 km/h (1 Bft)
19.08.2004 12:00 21,6 C 67 % 1016 hPa 0,0 l/m 15,1 C 21,0 C 6,9 km/h (2 Bft)
19.08.2004 13:00 21,9 C 61 % 1016 hPa 0,0 l/m 14,0 C 21,1 C 9,5 km/h (2 Bft)
19.08.2004 14:00 21,9 C 61 % 1016 hPa 0,0 l/m 14,0 C 21,1 C 9,5 km/h (2 Bft)
19.08.2004 15:00 21,8 C 62 % 1015 hPa 0,0 l/m 14,1 C 20,7 C 10,9 km/h (2 Bft)
19.08.2004 16:00 21,2 C 62 % 1015 hPa 0,0 l/m 13,5 C 20,7 C 7,3 km/h (2 Bft)
19.08.2004 17:00 20,1 C 63 % 1016 hPa 0,0 l/m 12,8 C 19,2 C 8,5 km/h (2 Bft)
19.08.2004 18:00 17,1 C 83 % 1016 hPa 4,0 l/m 14,2 C 16,0 C 10,4 km/h (2 Bft)
19.08.2004 19:00 15,7 C 93 % 1016 hPa 1,0 l/m 14,5 C 15,2 C 6,6 km/h (2 Bft)
19.08.2004 20:00 15,3 C 95 % 1014 hPa 0,0 l/m 14,5 C 15,3 C 0,3 km/h (0 Bft)
19.08.2004 21:00 15,2 C 96 % 1015 hPa 1,0 l/m 14,6 C 15,2 C 0,2 km/h (0 Bft)
19.08.2004 22:00 15,5 C 97 % 1015 hPa 1,0 l/m 15,0 C 15,0 C 5,9 km/h (2 Bft)
19.08.2004 23:00 15,4 C 98 % 1015 hPa 1,0 l/m 15,1 C 14,5 C 8,2 km/h (2 Bft)
20.08.2004 00:00 15,3 C 98 % 1015 hPa 0,0 l/m 15,0 C 14,6 C 8,6 km/h (2 Bft)
20.08.2004 01:00 15,3 C 98 % 1014 hPa 2,0 l/m 15,0 C 15,1 C 4,3 km/h (1 Bft)
20.08.2004 02:00 15,3 C 98 % 1014 hPa 0,0 l/m 15,0 C 15,3 C 0,0 km/h (0 Bft)
20.08.2004 03:00 15,3 C 98 % 1014 hPa 3,0 l/m 15,0 C 15,3 C 1,4 km/h (1 Bft)
20.08.2004 04:00 15,3 C 98 % 1014 hPa 1,0 l/m 14,9 C 13,9 C 9,9 km/h (2 Bft)
20.08.2004 05:00 15,4 C 98 % 1014 hPa 1,0 l/m 15,1 C 14,9 C 6,7 km/h (2 Bft)
20.08.2004 06:00 15,3 C 98 % 1014 hPa 0,0 l/m 14,9 C 14,4 C 9,0 km/h (2 Bft)
20.08.2004 07:00 15,2 C 98 % 1014 hPa 0,0 l/m 14,9 C 13,8 C 9,5 km/h (2 Bft)
20.08.2004 08:00 15,5 C 98 % 1014 hPa 0,0 l/m 15,2 C 14,2 C 10,0 km/h (2 Bft)
20.08.2004 09:00 16,3 C 97 % 1015 hPa 0,0 l/m 15,8 C 15,3 C 6,8 km/h (2 Bft)
20.08.2004 10:00 16,8 C 94 % 1015 hPa 0,0 l/m 15,9 C 15,5 C 9,7 km/h (2 Bft)
20.08.2004 11:00 17,9 C 87 % 1015 hPa 1,0 l/m 15,6 C 15,6 C 13,5 km/h (3 Bft)
20.08.2004 12:00 19,3 C 74 % 1015 hPa 0,0 l/m 14,5 C 17,3 C 14,0 km/h (3 Bft)
20.08.2004 13:00 20,0 C 67 % 1014 hPa 0,0 l/m 13,5 C 17,7 C 14,7 km/h (3 Bft)
20.08.2004 14:00 19,5 C 69 % 1014 hPa 0,0 l/m 13,5 C 17,5 C 13,6 km/h (3 Bft)
20.08.2004 15:00 19,2 C 70 % 1014 hPa 0,0 l/m 13,6 C 17,3 C 12,6 km/h (3 Bft)
20.08.2004 16:00 18,8 C 75 % 1014 hPa 0,0 l/m 14,2 C 15,6 C 17,9 km/h (3 Bft)
20.08.2004 17:00 19,7 C 68 % 1013 hPa 0,0 l/m 13,5 C 16,5 C 19,0 km/h (3 Bft)
20.08.2004 18:00 19,8 C 65 % 1013 hPa 0,0 l/m 13,1 C 16,8 C 17,5 km/h (3 Bft)
20.08.2004 19:00 18,3 C 71 % 1013 hPa 0,0 l/m 12,9 C 15,9 C 13,5 km/h (3 Bft)
20.08.2004 20:00 16,6 C 78 % 1013 hPa 0,0 l/m 12,7 C 15,8 C 6,5 km/h (2 Bft)
20.08.2004 21:00 15,4 C 82 % 1013 hPa 0,0 l/m 12,3 C 15,4 C 0,0 km/h (0 Bft)
20.08.2004 22:00 14,2 C 88 % 1013 hPa 0,0 l/m 12,2 C 14,2 C 0,0 km/h (0 Bft)
20.08.2004 23:00 13,7 C 92 % 1013 hPa 0,0 l/m 12,5 C 13,7 C 0,5 km/h (0 Bft)
21.08.2004 00:00 14,9 C 89 % 1014 hPa 0,0 l/m 13,1 C 14,9 C 0,0 km/h (0 Bft)
21.08.2004 01:00 14,2 C 95 % 1014 hPa 0,0 l/m 13,4 C 14,0 C 0,5 km/h (0 Bft)
21.08.2004 02:00 13,6 C 98 % 1014 hPa 0,0 l/m 13,3 C 13,6 C 0,0 km/h (0 Bft)
21.08.2004 03:00 13,2 C 92 % 1014 hPa 0,0 l/m 11,9 C 13,2 C 0,0 km/h (0 Bft)
21.08.2004 04:00 13,0 C 91 % 1014 hPa 0,0 l/m 11,5 C 13,0 C 0,0 km/h (0 Bft)
21.08.2004 05:00 12,9 C 96 % 1014 hPa 0,0 l/m 12,3 C 12,8 C 0,5 km/h (0 Bft)
21.08.2004 06:00 12,6 C 97 % 1014 hPa 0,0 l/m 12,2 C 12,6 C 0,0 km/h (0 Bft)
21.08.2004 07:00 12,3 C 97 % 1014 hPa 0,0 l/m 11,9 C 12,3 C 0,0 km/h (0 Bft)
21.08.2004 08:00 13,8 C 90 % 1014 hPa 0,0 l/m 12,1 C 13,8 C 0,0 km/h (0 Bft)
21.08.2004 09:00 15,4 C 72 % 1015 hPa 0,0 l/m 10,4 C 15,1 C 1,4 km/h (1 Bft)
21.08.2004 10:00 16,0 C 66 % 1015 hPa 0,0 l/m 9,6 C 13,0 C 13,2 km/h (3 Bft)
21.08.2004 11:00 15,5 C 67 % 1015 hPa 0,0 l/m 9,4 C 12,6 C 15,0 km/h (3 Bft)
21.08.2004 12:00 16,3 C 72 % 1015 hPa 0,0 l/m 11,1 C 12,5 C 19,2 km/h (3 Bft)
21.08.2004 13:00 15,8 C 78 % 1015 hPa 0,0 l/m 11,9 C 12,3 C 17,4 km/h (3 Bft)
21.08.2004 14:00 16,5 C 67 % 1016 hPa 0,0 l/m 10,3 C 12,6 C 20,1 km/h (4 Bft)
21.08.2004 15:00 16,5 C 60 % 1016 hPa 0,0 l/m 8,6 C 14,8 C 8,4 km/h (2 Bft)
21.08.2004 16:00 17,1 C 47 % 1017 hPa 0,0 l/m 5,6 C 13,8 C 16,6 km/h (3 Bft)
21.08.2004 17:00 16,7 C 46 % 1018 hPa 0,0 l/m 5,0 C 12,7 C 19,8 km/h (4 Bft)
21.08.2004 18:00 15,4 C 52 % 1018 hPa 0,0 l/m 5,5 C 12,6 C 14,7 km/h (3 Bft)
21.08.2004 19:00 14,6 C 59 % 1020 hPa 0,0 l/m 6,5 C 11,9 C 12,2 km/h (2 Bft)
21.08.2004 20:00 14,1 C 63 % 1020 hPa 0,0 l/m 7,1 C 12,0 C 11,4 km/h (2 Bft)
21.08.2004 21:00 13,6 C 68 % 1021 hPa 0,0 l/m 7,8 C 10,8 C 13,4 km/h (3 Bft)
21.08.2004 22:00 13,4 C 71 % 1021 hPa 0,0 l/m 8,3 C 10,4 C 13,5 km/h (3 Bft)
21.08.2004 23:00 12,6 C 82 % 1022 hPa 0,0 l/m 9,5 C 10,9 C 10,3 km/h (2 Bft)
22.08.2004 00:00 12,1 C 85 % 1023 hPa 0,0 l/m 9,7 C 11,6 C 4,9 km/h (1 Bft)
22.08.2004 01:00 11,9 C 87 % 1023 hPa 0,0 l/m 9,8 C 11,4 C 2,8 km/h (1 Bft)
22.08.2004 02:00 11,4 C 91 % 1023 hPa 0,0 l/m 10,0 C 11,1 C 2,7 km/h (1 Bft)
22.08.2004 03:00 11,4 C 92 % 1023 hPa 0,0 l/m 10,2 C 11,3 C 0,8 km/h (0 Bft)
22.08.2004 04:00 11,1 C 95 % 1023 hPa 0,0 l/m 10,3 C 11,1 C 0,0 km/h (0 Bft)
22.08.2004 05:00 11,0 C 96 % 1023 hPa 0,0 l/m 10,4 C 11,0 C 0,0 km/h (0 Bft)
22.08.2004 06:00 11,0 C 97 % 1023 hPa 0,0 l/m 10,5 C 11,0 C 0,0 km/h (0 Bft)
22.08.2004 07:00 11,2 C 98 % 1023 hPa 0,0 l/m 10,8 C 11,2 C 0,3 km/h (0 Bft)
22.08.2004 08:00 12,0 C 98 % 1024 hPa 0,0 l/m 11,6 C 12,0 C 1,2 km/h (1 Bft)
22.08.2004 09:00 13,9 C 80 % 1023 hPa 0,0 l/m 10,4 C 12,8 C 7,8 km/h (2 Bft)
22.08.2004 10:00 16,7 C 59 % 1023 hPa 0,0 l/m 8,6 C 15,2 C 9,0 km/h (2 Bft)
22.08.2004 11:00 18,3 C 51 % 1023 hPa 0,0 l/m 8,0 C 17,0 C 9,4 km/h (2 Bft)
22.08.2004 12:00 19,3 C 47 % 1023 hPa 0,0 l/m 7,6 C 17,8 C 9,0 km/h (2 Bft)
22.08.2004 13:00 19,7 C 47 % 1022 hPa 0,0 l/m 7,9 C 18,0 C 10,7 km/h (2 Bft)
22.08.2004 14:00 20,4 C 43 % 1022 hPa 0,0 l/m 7,5 C 19,2 C 8,2 km/h (2 Bft)
22.08.2004 15:00 20,2 C 43 % 1021 hPa 0,0 l/m 7,3 C 20,1 C 1,2 km/h (1 Bft)
22.08.2004 16:00 20,3 C 43 % 1021 hPa 0,0 l/m 7,3 C 18,7 C 9,7 km/h (2 Bft)
22.08.2004 17:00 19,3 C 47 % 1021 hPa 0,0 l/m 7,6 C 17,4 C 12,7 km/h (3 Bft)
22.08.2004 18:00 18,3 C 50 % 1021 hPa 0,0 l/m 7,7 C 16,6 C 11,3 km/h (2 Bft)
22.08.2004 19:00 17,5 C 57 % 1021 hPa 0,0 l/m 8,8 C 15,9 C 10,2 km/h (2 Bft)
22.08.2004 20:00 16,3 C 63 % 1021 hPa 0,0 l/m 9,2 C 14,8 C 10,9 km/h (2 Bft)
22.08.2004 21:00 15,1 C 66 % 1021 hPa 0,0 l/m 8,7 C 14,7 C 6,0 km/h (2 Bft)
22.08.2004 22:00 13,8 C 70 % 1021 hPa 0,0 l/m 8,5 C 13,8 C 0,8 km/h (0 Bft)
22.08.2004 23:00 12,5 C 76 % 1021 hPa 0,0 l/m 8,3 C 12,5 C 1,2 km/h (1 Bft)
Min-Datum _ 16.08.04 18.08.04 18.08.04 - 21.08.04 21.08.04 16.08.04
_ Min-Zeit 06:49 16:02 01:00 - 17:54 21:50 00:00
Minimum _ 10,7 C 31 % 1010 hPa - 4,3 C 8,0 C 0,0 km/h (0 Bft)
Max-Datum _ 18.08.04 16.08.04 22.08.04 19.08.04 17.08.04 18.08.04 21.08.04
_ Max-Zeit 16:25 08:01 08:41 18:10 10:21 16:25 16:03
Maximum _ 29,9 C 98 % 1024 hPa 4,0 l/m 18,3 C 29,9 C 40,3 km/h
W-SW (6 Bft)
Durchschnitt _ 17,3 C 78 % 1016 hPa #19,0 l/m 12,8 C 16,5 C 6,1 km/h (2 Bft)

Durchschnitt Minimum Temp.16,7 C
Durchschnitt Maximum Temp.18,0 C